Latest Coastal Weather Observations for Aireys Inlet

IDV60701

Issued at 8:25 am EST Thursday 24 April 2014 (issued every 10 minutes, with the page automatically refreshed every 10 minutes)

About coastal observations | Map of coastal stations | Coastal observations for VIC | Marine services | Other Formats
Station Details ID: 090180 Name: AIREYS INLET Lat: -38.46 Lon: 144.09 Height: 95.0 m
Data from the previous 72 hours. | See also: Recent months at Aireys Inlet
Date/Time
EST
Temp

°C
Wind Pressure Rain
since 9am
mm
Weather Cloud Vis
km
Sea
Height
m
Swell
Dir
 
Speed
knots
Gust
knots
hPa Trend Height
m
Period
s
Dir
24/08:00am 12.9 W 11 16 - - 0.2 - - - - - - -
24/07:30am 12.7 W 7 10 - - 0.2 - - - - - - -
24/07:00am 12.5 SW 7 11 - - 0.2 - - - - - - -
24/06:30am 12.3 WSW 6 10 - - 0.2 - - - - - - -
24/06:00am 12.1 WNW 9 16 - - 0.2 Rain - - - - - -
24/05:30am 12.4 NW 6 13 - - 0.0 - - - - - - -
24/05:00am 13.2 NW 9 16 - - 0.0 - - - - - - -
24/04:30am 13.1 NNW 7 13 - - 0.0 - - - - - - -
24/04:00am 12.7 NNW 7 13 - - 0.0 - - - - - - -
24/03:30am 12.4 N 5 9 - - 0.0 - - - - - - -
24/03:00am 13.2 NNW 8 14 - - 0.0 - - - - - - -
24/02:30am 13.0 NNW 7 11 - - 0.0 - - - - - - -
24/02:00am 12.9 NW 8 11 - - 0.0 - - - - - - -
24/01:30am 12.9 NW 9 13 - - 0.0 - - - - - - -
24/01:00am 12.8 NW 13 18 - - 0.0 - - - - - - -
24/12:30am 12.8 NW 10 16 - - 0.0 - - - - - - -
24/12:00am 13.2 NW 10 16 - - 0.0 - - - - - - -
 
Date/Time
EST
Temp

°C
Wind Pressure Rain
since 9am
mm
Weather Cloud Vis
km
Sea
Height
m
Swell
Dir
 
Speed
knots
Gust
knots
hPa Trend Height
m
Period
s
Dir
23/11:30pm 13.6 NW 10 15 - - 0.0 - - - - - - -
23/11:00pm 13.4 NW 10 15 - - 0.0 - - - - - - -
23/10:30pm 12.9 NW 6 8 - - 0.0 - - - - - - -
23/10:00pm 12.8 NW 6 10 - - 0.0 - - - - - - -
23/09:30pm 13.0 NNW 6 8 - - 0.0 - - - - - - -
23/09:00pm 13.8 NW 7 10 - - 0.0 - - - - - - -
23/08:30pm 13.7 NNW 5 7 - - 0.0 - - - - - - -
23/08:00pm 13.9 NW 6 8 - - 0.0 - - - - - - -
23/07:30pm 13.7 N 3 5 - - 0.0 - - - - - - -
23/07:00pm 13.8 NW 3 4 - - 0.0 - - - - - - -
23/06:30pm 13.9 N 3 4 - - 0.0 - - - - - - -
23/06:00pm 14.4 NNW 2 3 - - 0.0 - - - - - - -
23/05:30pm 14.7 N 2 5 - - 0.0 - - - - - - -
23/05:00pm 15.2 NNW 4 7 - - 0.0 - - - - - - -
23/04:30pm 16.0 NW 6 8 - - 0.0 - - - - - - -
23/04:00pm 16.6 WNW 8 15 - - 0.0 - - - - - - -
23/03:30pm 15.9 NW 7 10 - - 0.0 - - - - - - -
23/03:00pm 15.2 WNW 7 12 - - 0.0 - - - - - - -
23/02:30pm 15.1 NW 7 11 - - 0.0 - - - - - - -
23/02:00pm 15.1 NW 6 9 - - 0.0 - - - - - - -
23/01:30pm 15.2 NW 5 10 - - 0.0 - - - - - - -
23/01:00pm 15.0 WNW 6 10 - - 0.0 - - - - - - -
23/12:30pm 15.1 NW 7 11 - - 0.0 - - - - - - -
23/12:00pm 14.7 NW 12 17 - - 0.0 - - - - - - -
23/11:30am 14.9 WNW 14 19 - - 0.0 - - - - - - -
23/11:00am 15.8 NNW 6 12 - - 0.0 - - - - - - -
23/10:30am 14.8 NW 6 9 - - 0.0 - - - - - - -
23/10:00am 13.9 NW 9 12 - - 0.0 - - - - - - -
23/09:30am 13.4 NW 11 14 - - 0.0 - - - - - - -
23/09:00am 12.4 NW 9 12 - - 1.4 - - - - - - -
23/08:30am 11.3 NW 10 13 - - 1.4 - - - - - - -
23/08:00am 10.5 NW 11 14 - - 1.4 - - - - - - -
23/07:30am 9.3 NW 11 14 - - 1.4 - - - - - - -
23/07:00am 9.3 NW 11 14 - - 1.4 - - - - - - -
23/06:30am 9.2 NW 11 13 - - 1.4 - - - - - - -
23/06:00am 9.2 NW 11 13 - - 1.4 - - - - - - -
23/05:30am 9.3 NW 10 12 - - 1.4 - - - - - - -
23/05:00am 9.5 NW 8 10 - - 1.4 - - - - - - -
23/04:30am 9.4 NNW 7 9 - - 1.4 - - - - - - -
23/04:00am 9.3 NNW 7 9 - - 1.4 - - - - - - -
23/03:30am 9.4 NNW 7 9 - - 1.4 - - - - - - -
23/03:00am 9.6 NNW 8 9 - - 1.4 - - - - - - -
23/02:30am 9.5 NNW 7 9 - - 1.4 - - - - - - -
23/02:00am 9.7 NW 7 9 - - 1.4 - - - - - - -
23/01:30am 9.7 NNW 7 8 - - 1.4 - - - - - - -
23/01:00am 9.5 NNW 7 9 - - 1.4 - - - - - - -
23/12:30am 9.0 NNW 6 8 - - 1.4 - - - - - - -
23/12:00am 9.0 NW 7 10 - - 1.4 - - - - - - -
 
Date/Time
EST
Temp

°C
Wind Pressure Rain
since 9am
mm
Weather Cloud Vis
km
Sea
Height
m
Swell
Dir
 
Speed
knots
Gust
knots
hPa Trend Height
m
Period
s
Dir
22/11:30pm 9.5 NNW 5 7 - - 1.4 - - - - - - -
22/11:00pm 9.6 NNW 6 7 - - 1.4 - - - - - - -
22/10:30pm 9.8 NW 7 9 - - 1.4 - - - - - - -
22/10:00pm 9.9 NNW 5 7 - - 1.4 - - - - - - -
22/09:30pm 10.3 NW 6 7 - - 1.4 - - - - - - -
22/09:00pm 10.4 NNW 6 7 - - 1.4 - - - - - - -
22/08:30pm 10.3 NNW 6 7 - - 1.4 - - - - - - -
22/08:00pm 11.5 WNW 5 6 - - 1.4 - - - - - - -
22/07:30pm 12.2 W 5 6 - - 1.4 - - - - - - -
22/07:00pm 12.6 W 6 8 - - 1.4 - - - - - - -
22/06:30pm 13.1 SW 8 12 - - 1.4 - - - - - - -
22/06:00pm 13.7 SW 10 15 - - 1.4 - - - - - - -
22/05:30pm 14.6 SW 11 17 - - 1.4 - - - - - - -
22/05:00pm 14.5 SW 12 18 - - 1.4 - - - - - - -
22/04:30pm 14.8 SSW 13 20 - - 1.4 - - - - - - -
22/04:00pm 15.1 SW 11 17 - - 1.4 - - - - - - -
22/03:30pm 15.1 SSW 10 19 - - 1.4 - - - - - - -
22/03:00pm 15.7 SSW 9 14 - - 1.4 - - - - - - -
22/02:30pm 16.1 S 9 13 - - 1.4 - - - - - - -
22/02:00pm 15.3 SSW 8 13 - - 1.4 - - - - - - -
22/01:30pm 15.6 SSW 7 12 - - 1.4 - - - - - - -
22/01:00pm 14.5 SSW 7 11 - - 1.4 - - - - - - -
22/12:30pm 14.5 SW 9 15 - - 1.2 - - - - - - -
22/12:00pm 15.4 SW 11 17 - - 0.2 Rain - - - - - -
22/11:30am 17.3 NW 10 13 - - 0.0 - - - - - - -
22/11:00am 16.4 WNW 10 16 - - 0.0 - - - - - - -
22/10:30am 16.0 NW 7 10 - - 0.0 - - - - - - -
22/10:00am 14.3 NNW 8 13 - - 0.0 - - - - - - -
22/09:30am 13.7 N 8 11 - - 0.0 - - - - - - -
22/09:00am 13.5 NNE 5 8 - - 19.0 - - - - - - -
22/08:30am 13.4 NE 7 10 - - 19.0 - - - - - - -
22/08:00am 13.8 N 3 9 - - 19.0 - - - - - - -
22/07:30am 13.4 NNW 14 24 - - 19.0 - - - - - - -
22/07:15am 13.1 NNW 15 27 - - 19.0 - - - - - - -
22/07:00am 13.0 NNW 14 22 - - 19.0 - - - - - - -
22/06:30am 12.5 NNW 15 26 - - 17.6 - - - - - - -
22/06:23am 12.6 NNW 15 27 - - 17.2 - - - - - - -
22/06:00am 12.4 NNW 12 19 - - 16.4 Rain - - - - - -
22/05:30am 12.3 NNW 13 20 - - 15.2 - - - - - - -
22/05:06am 12.4 NW 15 26 - - 13.4 - - - - - - -
22/05:00am 12.5 NW 15 20 - - 12.8 - - - - - - -
22/04:30am 12.2 NNW 14 21 - - 12.4 - - - - - - -
22/04:08am 12.7 NNW 17 32 - - 10.0 - - - - - - -
22/04:00am 12.6 NNW 15 23 - - 9.4 - - - - - - -
22/03:35am 13.1 NNW 17 27 - - 8.4 - - - - - - -
22/03:30am 12.9 NNW 15 22 - - 8.0 - - - - - - -
22/03:00am 13.0 NNW 18 27 - - 7.2 Rain - - - - - -
22/02:41am 13.1 N 18 29 - - 6.2 - - - - - - -
22/02:30am 12.9 N 15 22 - - 5.6 - - - - - - -
22/02:00am 12.8 NW 16 22 - - 3.8 - - - - - - -
22/01:30am 13.0 WNW 13 20 - - 2.0 - - - - - - -
22/01:00am 12.9 NW 13 18 - - 1.4 - - - - - - -
22/12:30am 14.9 NNW 14 20 - - 0.4 - - - - - - -
22/12:00am 17.3 N 2 4 - - 0.0 - - - - - - -
 
Date/Time
EST
Temp

°C
Wind Pressure Rain
since 9am
mm
Weather Cloud Vis
km
Sea
Height
m
Swell
Dir
 
Speed
knots
Gust
knots
hPa Trend Height
m
Period
s
Dir
21/11:30pm 17.5 WNW 3 6 - - 0.0 - - - - - - -
21/11:00pm 17.3 SW 7 12 - - 0.0 - - - - - - -
21/10:30pm 17.2 WSW 3 5 - - 0.0 - - - - - - -
21/10:00pm 17.3 N 6 14 - - 0.0 - - - - - - -
21/09:30pm 17.4 N 11 17 - - 0.0 - - - - - - -
21/09:00pm 17.7 N 14 26 - - 0.0 - - - - - - -
21/08:30pm 17.3 NNE 9 16 - - 0.0 - - - - - - -
21/08:00pm 17.0 NNE 8 16 - - 0.0 - - - - - - -
21/07:30pm 17.1 NE 7 12 - - 0.0 - - - - - - -
21/07:00pm 17.7 NNE 5 10 - - 0.0 - - - - - - -
21/06:00pm 19.4 N 12 20 - - 0.0 - - - - - - -
21/05:30pm 19.7 N 9 16 - - 0.0 - - - - - - -
21/05:00pm 19.9 N 8 14 - - 0.0 - - - - - - -
21/04:30pm 20.6 N 11 18 - - 0.0 - - - - - - -
21/04:00pm 21.2 N 9 14 - - 0.0 - - - - - - -
21/03:30pm 21.0 N 15 27 - - 0.0 - - - - - - -
21/03:14pm 20.8 N 15 28 - - 0.0 - - - - - - -
21/03:00pm 20.9 N 14 23 - - 0.0 - - - - - - -
21/02:30pm 20.6 N 11 19 - - 0.0 - - - - - - -
21/02:00pm 19.8 N 12 20 - - 0.0 - - - - - - -
21/01:30pm 20.1 N 14 22 - - 0.0 - - - - - - -
21/01:00pm 19.3 N 13 23 - - 0.0 - - - - - - -
21/12:31pm 20.9 N 16 30 - - 0.0 - - - - - - -
21/12:30pm 21.0 N 14 28 - - 0.0 - - - - - - -
21/12:00pm 19.7 N 16 26 - - 0.0 - - - - - - -
21/11:58am 19.8 N 15 26 - - 0.0 - - - - - - -
21/11:30am 19.2 N 12 21 - - 0.0 - - - - - - -
21/11:00am 16.7 N 10 15 - - 0.0 - - - - - - -
21/10:30am 15.4 NNW 10 18 - - 0.0 - - - - - - -
21/10:00am 14.3 NNW 8 12 - - 0.0 - - - - - - -
21/09:30am 13.5 NNW 11 16 - - 0.0 - - - - - - -
21/09:00am 13.3 NW 15 20 - - 0.0 - - - - - - -
21/08:30am 13.1 NW 13 18 - - 0.0 - - - - - - -

Other Formats:

Comma delimited format used in spreadsheet applications
http://www.bom.gov.au/fwo/IDV60701/IDV60701.94846.axf

JavaScript Object Notation format (JSON) in row-major order
http://www.bom.gov.au/fwo/IDV60701/IDV60701.94846.json